Time;durP1;ratioP1;P1;durP2;ratioP2;P2;SDS_P1;SDS_P2;PMS_P1;PMS_P2;Temp;Humidity;BMP_temperature;BMP_pressure;BME280_temperature;BME280_humidity;BME280_pressure;Samples;Min_cycle;Max_cycle;Signal;HPM_P1;HPM_P2
2021/06/29 07:15:46;;;;;;;1212.28;999.90;;;;;;;;;;5194527;27;20971;-69
2021/06/29 07:18:13;;;;;;;1254.20;999.90;;;;;;;;;;5173577;27;20169;-71
2021/06/29 07:20:41;;;;;;;1302.45;999.90;;;;;;;;;;5173467;27;20180;-69
2021/06/29 07:23:07;;;;;;;1327.65;999.90;;;;;;;;;;5173668;27;20622;-69
2021/06/29 07:25:33;;;;;;;1356.07;999.90;;;;;;;;;;5173307;27;20269;-70
2021/06/29 07:27:59;;;;;;;1357.45;999.90;;;;;;;;;;5173350;27;20493;-71
2021/06/29 07:30:25;;;;;;;1368.65;999.90;;;;;;;;;;5173076;27;20257;-70
2021/06/29 07:32:53;;;;;;;1378.22;999.90;;;;;;;;;;5173086;27;20169;-70
2021/06/29 07:35:21;;;;;;;1381.32;999.90;;;;;;;;;;5173135;27;20192;-70
2021/06/29 07:37:47;;;;;;;1383.97;999.90;;;;;;;;;;5173223;27;20161;-70
2021/06/29 07:40:13;;;;;;;1367.00;999.90;;;19.50;99.90;;;;;;5173269;27;20241;-70
2021/06/29 07:42:38;;;;;;;1365.45;999.90;;;19.60;99.90;;;;;;5173264;27;20574;-69
2021/06/29 07:45:06;;;;;;;1370.55;999.90;;;19.60;99.90;;;;;;5172933;27;20251;-69
2021/06/29 07:47:33;;;;;;;1368.63;999.90;;;19.50;99.90;;;;;;5154530;27;20217;-69
2021/06/29 07:49:59;;;;;;;1372.88;999.90;;;19.50;99.90;;;;;;5172875;27;20563;-69
2021/06/29 07:52:25;;;;;;;1350.45;999.90;;;;;;;;;;5172927;27;20164;-69
2021/06/29 07:54:51;;;;;;;1365.03;999.90;;;19.40;99.90;;;;;;5172758;27;20203;-70
2021/06/29 07:57:17;;;;;;;1364.13;999.90;;;19.40;99.90;;;;;;5172908;27;20168;-69
2021/06/29 07:59:43;;;;;;;1344.88;999.90;;;19.40;99.90;;;;;;5172831;27;20157;-69
2021/06/29 08:02:08;;;;;;;1380.13;999.90;;;19.60;99.90;;;;;;5172719;27;20179;-69
2021/06/29 08:04:36;;;;;;;1376.45;999.90;;;19.60;99.90;;;;;;5172725;27;20172;-70
2021/06/29 08:07:02;;;;;;;1375.43;999.90;;;19.60;99.90;;;;;;5172662;27;20235;-70
2021/06/29 08:09:27;;;;;;;1354.43;999.90;;;19.60;99.90;;;;;;5172520;27;20633;-70
2021/06/29 08:11:53;;;;;;;1357.90;999.90;;;19.50;99.90;;;;;;5165857;27;20272;-69
2021/06/29 08:14:19;;;;;;;1359.80;999.90;;;19.50;99.90;;;;;;5151600;27;20507;-69
2021/06/29 08:16:45;;;;;;;1376.90;999.90;;;19.50;99.90;;;;;;5151521;27;20161;-69
2021/06/29 08:19:11;;;;;;;1363.95;999.90;;;19.50;99.90;;;;;;5151596;27;20607;-69
2021/06/29 08:21:36;;;;;;;1364.40;999.90;;;19.40;99.90;;;;;;5151420;27;20168;-70
2021/06/29 08:24:03;;;;;;;1364.85;999.90;;;19.50;99.90;;;;;;5151368;27;20177;-70
2021/06/29 08:26:28;;;;;;;1374.95;999.90;;;19.60;99.90;;;;;;5139600;27;20219;-70
2021/06/29 08:28:54;;;;;;;1355.95;999.90;;;19.20;99.90;;;;;;5137636;27;20165;-70
2021/06/29 08:31:21;;;;;;;1354.75;999.90;;;19.70;99.90;;;;;;5119229;27;20173;-70
2021/06/29 08:33:47;;;;;;;1364.68;999.90;;;19.60;99.90;;;;;;5137475;27;20196;-69
2021/06/29 08:36:12;;;;;;;1371.82;999.90;;;19.50;99.90;;;;;;5137400;27;20166;-69
2021/06/29 08:38:38;;;;;;;1373.10;999.90;;;19.80;99.90;;;;;;5119284;27;20193;-69
2021/06/29 08:41:03;;;;;;;1383.35;999.90;;;19.80;99.90;;;;;;5137317;27;20166;-69
2021/06/29 08:43:30;;;;;;;1395.07;999.90;;;19.90;99.90;;;;;;5137285;27;20170;-73
2021/06/29 08:45:57;;;;;;;1397.32;999.90;;;20.10;99.90;;;;;;5137187;27;20170;-72
2021/06/29 08:48:22;;;;;;;1390.38;999.90;;;20.20;99.90;;;;;;5137313;27;20170;-72
2021/06/29 08:50:48;;;;;;;1373.53;999.90;;;20.40;99.90;;;;;;5137192;27;20548;-73
2021/06/29 08:53:15;;;;;;;1386.60;999.90;;;20.60;99.90;;;;;;5137076;27;20202;-73
2021/06/29 08:55:49;;;;;;;1386.72;999.90;;;20.70;99.90;;;;;;5137187;27;20162;-72
2021/06/29 08:58:19;;;;;;;1378.22;999.90;;;20.80;99.90;;;;;;5137235;27;20222;-71
2021/06/29 09:00:46;;;;;;;1393.53;999.90;;;20.90;99.90;;;;;;5136899;27;20158;-71
2021/06/29 09:03:12;;;;;;;1351.97;999.90;;;21.00;99.90;;;;;;5137067;27;20222;-67
2021/06/29 09:05:43;;;;;;;1368.00;999.90;;;21.00;99.90;;;;;;5136805;27;20166;-68
2021/06/29 09:08:13;;;;;;;1357.20;999.90;;;21.10;99.90;;;;;;5136813;27;20642;-68
2021/06/29 09:10:42;;;;;;;1351.85;999.90;;;21.10;99.90;;;;;;5136928;27;20569;-69
2021/06/29 09:13:10;;;;;;;1343.22;999.90;;;21.10;99.90;;;;;;5136349;27;20189;-67
2021/06/29 09:15:42;;;;;;;1360.25;999.90;;;21.10;99.90;;;;;;5136617;27;20173;-68
2021/06/29 09:18:20;;;;;;;1412.30;999.90;;;20.40;99.90;;;;;;5136711;27;20165;-68
2021/06/29 09:20:58;;;;;;;1392.30;999.90;;;21.20;99.90;;;;;;5136463;27;20158;-68
2021/06/29 09:23:28;;;;;;;1337.47;999.90;;;21.40;99.90;;;;;;5136591;27;20169;-67
2021/06/29 09:25:54;;;;;;;1330.30;999.90;;;21.50;99.90;;;;;;5136387;27;20245;-69
2021/06/29 09:28:24;;;;;;;1345.93;999.90;;;21.50;99.90;;;;;;5136529;27;20542;-69
2021/06/29 09:30:51;;;;;;;1337.13;999.90;;;21.50;99.90;;;;;;5136259;27;20169;-68
2021/06/29 09:33:24;;;;;;;1332.65;999.90;;;21.50;99.90;;;;;;5136215;27;20170;-69
2021/06/29 09:35:56;;;;;;;1336.32;999.90;;;21.50;99.90;;;;;;5136483;27;20170;-69
2021/06/29 09:38:24;;;;;;;1339.25;999.90;;;21.50;99.90;;;;;;5117056;27;20634;-69
2021/06/29 09:40:54;;;;;;;1341.30;999.90;;;21.50;99.90;;;;;;5136224;27;20177;-69
2021/06/29 09:43:21;;;;;;;1366.95;999.90;;;21.60;99.90;;;;;;5136109;27;20169;-68
2021/06/29 09:45:51;;;;;;;1347.85;999.90;;;21.80;99.90;;;;;;5136091;27;20517;-68
2021/06/29 09:48:27;;;;;;;1355.57;999.90;;;21.90;99.90;;;;;;5136114;27;20173;-68
2021/06/29 09:50:55;;;;;;;1316.18;999.90;;;21.90;99.90;;;;;;5136037;27;20167;-69
2021/06/29 09:53:26;;;;;;;1361.47;999.90;;;21.90;99.90;;;;;;5117259;27;20165;-67
2021/06/29 09:55:56;;;;;;;1338.68;999.90;;;21.90;99.90;;;;;;5135867;27;20241;-67
2021/06/29 09:58:23;;;;;;;1421.00;999.90;;;21.90;99.90;;;;;;5135702;27;20200;-70
2021/06/29 10:00:49;;;;;;;1332.40;999.90;;;21.90;99.90;;;;;;5135607;27;20245;-68
2021/06/29 10:03:18;;;;;;;1372.20;999.90;;;21.90;99.90;;;;;;5135347;27;20257;-67
2021/06/29 10:05:44;;;;;;;1323.15;999.90;;;21.80;99.90;;;;;;5135363;27;20190;-67
2021/06/29 10:08:09;;;;;;;1330.75;999.90;;;21.80;99.90;;;;;;5134915;27;20216;-67
2021/06/29 10:10:35;;;;;;;1314.13;999.90;;;21.80;99.90;;;;;;5135189;27;20161;-67
2021/06/29 10:13:17;;;;;;;1281.75;999.90;;;21.80;99.90;;;;;;5134902;27;20170;-68
2021/06/29 10:15:44;;;;;;;1287.38;999.90;;;21.70;99.90;;;;;;5135225;27;20186;-68
2021/06/29 10:18:10;;;;;;;1304.43;999.90;;;21.70;99.90;;;;;;5116615;27;20162;-67
2021/06/29 10:20:51;;;;;;;1323.53;999.90;;;21.70;99.90;;;;;;5135129;27;20162;-68
2021/06/29 10:23:17;;;;;;;1318.75;999.90;;;21.80;99.90;;;;;;5134940;27;20157;-68
2021/06/29 10:25:44;;;;;;;1306.78;999.90;;;21.90;99.90;;;;;;5134965;27;20158;-67
2021/06/29 10:28:14;;;;;;;1342.03;999.90;;;22.00;99.90;;;;;;5134937;27;20494;-67
2021/06/29 10:30:41;;;;;;;1335.57;999.90;;;22.20;99.90;;;;;;5134924;27;20238;-67
2021/06/29 10:33:08;;;;;;;1334.88;999.90;;;22.40;99.90;;;;;;5134753;27;20291;-67
2021/06/29 10:35:35;;;;;;;1293.32;999.90;;;22.50;99.90;;;;;;5134798;27;20649;-67
2021/06/29 10:38:01;;;;;;;1271.40;999.90;;;22.60;99.90;;;;;;5134756;27;20165;-67
2021/06/29 10:40:27;;;;;;;1271.97;999.90;;;22.70;99.90;;;;;;5134736;27;20634;-67
2021/06/29 10:42:57;;;;;;;1250.25;999.90;;;22.80;99.90;;;;;;5134663;27;20202;-67
2021/06/29 10:45:23;;;;;;;1233.47;999.90;;;22.70;99.90;;;;;;5134672;27;20172;-67
2021/06/29 10:47:49;;;;;;;1271.85;999.90;;;22.60;99.90;;;;;;5134481;27;20169;-67
2021/06/29 10:50:15;;;;;;;1256.15;999.90;;;22.70;99.90;;;;;;5134400;27;20199;-67
2021/06/29 10:52:43;;;;;;;1198.15;999.90;;;22.70;99.90;;;;;;5134413;27;20260;-70
2021/06/29 10:55:28;;;;;;;1198.03;999.90;;;22.60;99.90;;;;;;5134410;27;20204;-69
2021/06/29 10:57:56;;;;;;;1241.50;999.90;;;22.60;99.90;;;;;;5115980;27;20523;-70
2021/06/29 11:00:22;;;;;;;1175.63;999.90;;;22.70;99.90;;;;;;5115845;27;20170;-70
2021/06/29 11:02:59;;;;;;;1138.53;999.90;;;22.80;99.90;;;;;;5134277;27;20653;-70
2021/06/29 11:05:27;;;;;;;1146.25;999.90;;;22.90;99.90;;;;;;5115975;28;20173;-70
2021/06/29 11:08:19;;;;;;;1088.90;996.55;;;22.90;99.90;;;;;;5115663;27;20201;-70
2021/06/29 11:10:48;;;;;;;1082.32;994.95;;;22.90;99.90;;;;;;5115993;28;20265;-68
2021/06/29 11:13:16;;;;;;;1070.95;986.78;;;22.90;99.90;;;;;;5133948;27;20218;-69
2021/06/29 11:15:53;;;;;;;1117.45;999.90;;;22.90;99.90;;;;;;5134186;27;20165;-69
2021/06/29 11:18:21;;;;;;;1116.05;999.90;;;22.80;99.90;;;;;;5134373;28;20166;-69
2021/06/29 11:20:54;;;;;;;1050.20;970.38;;;22.80;99.90;;;;;;5134293;28;20218;-69
2021/06/29 11:23:32;;;;;;;1090.40;998.08;;;22.70;99.90;;;;;;5134199;28;20164;-69
2021/06/29 11:26:16;;;;;;;1117.70;999.90;;;22.50;99.90;;;;;;5134226;28;20146;-69
2021/06/29 11:28:48;;;;;;;1167.72;999.90;;;22.40;99.90;;;;;;5134252;28;20166;-69
2021/06/29 11:31:19;;;;;;;1184.25;999.90;;;22.50;99.90;;;;;;5115602;28;20657;-68
2021/06/29 11:33:50;;;;;;;1077.32;993.20;;;22.50;99.90;;;;;;5133980;28;20217;-66
2021/06/29 11:36:34;;;;;;;1055.85;975.15;;;22.60;99.90;;;;;;5134100;27;20158;-66
2021/06/29 11:39:22;;;;;;;1071.32;988.13;;;22.60;99.90;;;;;;5134089;27;20166;-69
2021/06/29 11:41:52;;;;;;;1108.18;999.90;;;22.70;99.90;;;;;;5134150;28;20207;-69
2021/06/29 11:44:18;;;;;;;1167.15;999.90;;;22.70;99.90;;;;;;5134052;28;20219;-69
2021/06/29 11:47:02;;;;;;;1067.15;984.58;;;22.80;99.90;;;;;;5133956;28;20563;-69
2021/06/29 11:49:52;;;;;;;1153.25;999.90;;;23.10;99.90;;;;;;5134022;27;20185;-69
2021/06/29 11:52:19;;;;;;;1055.78;974.47;;;23.50;99.90;;;;;;5133988;28;20212;-69
2021/06/29 11:55:06;;;;;;;961.90;894.60;;;23.70;99.90;;;;;;5133800;28;20550;-70
2021/06/29 11:57:52;;;;;;;976.13;905.67;;;23.60;99.90;;;;;;5133829;28;20158;-69
2021/06/29 12:00:23;;;;;;;1048.93;968.58;;;23.60;99.90;;;;;;5134407;27;20165;-69
2021/06/29 12:02:52;;;;;;;1029.25;951.72;;;23.50;99.90;;;;;;5137796;27;20215;-69
2021/06/29 12:05:24;;;;;;;1043.88;964.95;;;23.50;99.90;;;;;;5137750;27;20178;-69
2021/06/29 12:07:51;;;;;;;1025.32;949.33;;;23.50;99.90;;;;;;5137662;27;20162;-69
2021/06/29 12:10:31;;;;;;;930.63;867.25;;;23.70;99.90;;;;;;5137385;27;20193;-69
2021/06/29 12:13:01;;;;;;;840.63;785.92;;;23.70;99.90;;;;;;5137660;27;20850;-69
2021/06/29 12:15:33;;;;;;;866.40;809.53;;;23.60;99.90;;;;;;5137066;27;20293;-69
2021/06/29 12:18:21;;;;;;;829.65;776.22;;;23.60;99.90;;;;;;5137465;27;20166;-69
2021/06/29 12:21:02;;;;;;;885.00;825.75;;;23.60;99.90;;;;;;5137455;27;20199;-69
2021/06/29 12:23:32;;;;;;;902.85;841.90;;;23.60;99.90;;;;;;5137368;27;20169;-70
2021/06/29 12:26:09;;;;;;;985.97;915.13;;;23.70;99.90;;;;;;5137339;27;20185;-70
2021/06/29 12:28:38;;;;;;;877.72;819.90;;;23.80;99.90;;;;;;5137289;27;20157;-70
2021/06/29 12:31:12;;;;;;;912.63;850.50;;;23.70;99.90;;;;;;5118830;27;20582;-72
2021/06/29 12:33:44;;;;;;;898.35;838.38;;;23.70;99.90;;;;;;5137181;27;20549;-72
2021/06/29 12:36:15;;;;;;;890.08;830.67;;;23.70;99.90;;;;;;5137195;27;20173;-71
2021/06/29 12:38:44;;;;;;;905.75;844.83;;;23.80;99.90;;;;;;5137061;27;20161;-72
2021/06/29 12:41:22;;;;;;;789.63;740.08;;;23.80;99.90;;;;;;5137116;27;20162;-73
2021/06/29 12:43:59;;;;;;;758.63;711.70;;;23.70;99.90;;;;;;5137070;27;20649;-72
2021/06/29 12:46:30;;;;;;;849.40;794.00;;;23.40;99.90;;;;;;5136827;27;20547;-71
2021/06/29 12:49:07;;;;;;;916.42;853.70;;;23.20;99.90;;;;;;5136931;27;20162;-71
2021/06/29 12:51:39;;;;;;;888.50;829.15;;;23.10;99.90;;;;;;5136844;27;20172;-70
2021/06/29 12:54:09;;;;;;;970.03;900.67;;;23.10;99.90;;;;;;5136689;27;20222;-71
2021/06/29 12:56:43;;;;;;;972.55;903.30;;;23.20;99.90;;;;;;5136763;27;20170;-67
2021/06/29 12:59:11;;;;;;;1020.70;944.88;;;23.30;99.90;;;;;;5136748;27;20237;-68
2021/06/29 13:01:46;;;;;;;989.83;918.70;;;23.30;99.90;;;;;;5136642;27;20170;-70
2021/06/29 13:04:15;;;;;;;976.72;907.28;;;23.40;99.90;;;;;;5136603;27;20570;-70
2021/06/29 13:06:42;;;;;;;961.55;893.15;;;23.40;99.90;;;;;;5136543;27;20196;-70
2021/06/29 13:09:17;;;;;;;880.95;822.58;;;23.60;99.90;;;;;;5136444;27;20210;-70
2021/06/29 13:11:58;;;;;;;909.20;847.85;;;23.90;99.90;;;;;;5136105;27;20169;-71
2021/06/29 13:14:24;;;;;;;888.90;830.03;;;24.00;99.90;;;;;;5136220;27;20724;-70
2021/06/29 13:17:00;;;;;;;865.20;808.45;;;24.20;99.90;;;;;;5136403;27;20194;-69
2021/06/29 13:19:25;;;;;;;632.75;596.10;;;24.30;99.90;;;;;;5136353;27;20164;-70
2021/06/29 13:22:00;;;;;;;648.78;610.33;;;24.10;99.90;;;;;;5136279;27;20166;-69
2021/06/29 13:24:39;;;;;;;786.13;737.20;;;23.90;99.90;;;;;;5136021;27;20330;-69
2021/06/29 13:27:05;;;;;;;794.63;740.45;;;23.90;99.90;;;;;;5117624;27;20185;-70
2021/06/29 13:29:39;;;;;;;898.85;838.75;;;24.00;99.90;;;;;;5136006;27;20170;-69
2021/06/29 13:32:23;;;;;;;543.95;514.55;;;24.20;99.90;;;;;;5117910;27;20366;-70
2021/06/29 13:35:00;;;;;;;512.35;485.25;;;24.30;99.90;;;;;;5135907;27;20197;-71
2021/06/29 13:37:26;;;;;;;516.63;488.95;;;24.40;99.90;;;;;;5135955;27;20177;-71
2021/06/29 13:39:53;;;;;;;642.80;605.08;;;24.50;99.90;;;;;;5135840;27;20652;-71
2021/06/29 13:42:24;;;;;;;611.55;576.38;;;24.60;99.90;;;;;;5136191;27;20161;-70
2021/06/29 13:45:16;;;;;;;591.92;558.38;;;24.80;99.90;;;;;;5135614;27;20194;-69
2021/06/29 13:47:50;;;;;;;433.33;411.65;;;24.90;99.90;;;;;;5130952;27;20190;-70
2021/06/29 13:50:17;;;;;;;544.55;515.28;;;24.60;99.90;;;;;;5135744;27;20629;-70
2021/06/29 13:52:56;;;;;;;546.75;516.83;;;24.70;99.90;;;;;;5135669;27;20524;-69
2021/06/29 13:55:23;;;;;;;432.35;410.55;;;24.90;99.90;;;;;;5135602;27;20169;-70
2021/06/29 13:57:48;;;;;;;442.92;420.35;;;25.00;99.90;;;;;;5117058;27;20174;-70
2021/06/29 14:00:21;;;;;;;545.08;515.55;;;25.20;99.90;;;;;;5135476;27;20223;-71
2021/06/29 14:03:00;;;;;;;490.67;465.08;;;25.40;99.90;;;;;;5135462;27;20256;-71
2021/06/29 14:05:53;;;;;;;371.17;351.75;;;25.60;99.90;;;;;;5116980;27;20193;-71
2021/06/29 14:08:25;;;;;;;505.67;478.13;;;25.40;99.90;;;;;;5096641;27;20178;-71
2021/06/29 14:10:59;;;;;;;527.55;498.75;;;25.40;99.90;;;;;;5135270;27;20158;-71
2021/06/29 14:13:28;;;;;;;349.65;332.77;;;25.50;99.90;;;;;;5135022;27;20545;-71
2021/06/29 14:15:55;;;;;;;434.02;411.70;;;25.50;99.90;;;;;;5135189;27;20153;-70
2021/06/29 14:18:21;;;;;;;452.27;428.85;;;25.40;99.90;;;;;;5135165;27;20177;-71
2021/06/29 14:20:48;;;;;;;206.10;196.52;;;25.30;99.90;;;;;;5135136;27;20157;-70
2021/06/29 14:23:14;;;;;;;445.88;423.13;;;25.00;99.90;;;;;;5134556;27;20162;-71
2021/06/29 14:25:39;;;;;;;383.25;364.45;;;24.80;99.90;;;;;;5134976;27;20185;-71
2021/06/29 14:28:05;;;;;;;478.60;453.73;;;24.70;99.90;;;;;;5134921;27;20264;-71
2021/06/29 14:30:31;;;;;;;408.80;388.23;;;24.80;99.90;;;;;;5134928;27;20223;-71
2021/06/29 14:32:59;;;;;;;299.52;285.60;;;25.00;99.90;;;;;;5134896;27;20353;-71
2021/06/29 14:35:26;;;;;;;160.35;153.02;;;25.20;99.90;;;;;;5134781;27;20170;-67
2021/06/29 14:37:53;;;;;;;354.85;337.85;;;25.30;99.90;;;;;;5116381;27;20623;-67
2021/06/29 14:40:18;;;;;;;265.30;252.85;;;25.50;99.90;;;;;;5134759;27;20570;-67
2021/06/29 14:42:44;;;;;;;162.77;155.38;;;25.60;99.90;;;;;;5134710;27;20162;-69
2021/06/29 14:45:10;;;;;;;85.43;81.68;;;25.70;99.90;;;;;;5134643;27;20643;-68
2021/06/29 14:47:37;;;;;;;149.15;142.32;;;25.50;99.90;;;;;;5134641;27;20169;-67
2021/06/29 14:50:05;;;;;;;309.33;294.73;;;25.50;99.90;;;;;;5134520;27;20158;-67
2021/06/29 14:52:31;;;;;;;253.57;241.93;;;25.70;99.90;;;;;;5116204;27;20180;-67
2021/06/29 14:54:57;;;;;;;144.30;137.73;;;26.10;99.90;;;;;;5134506;27;20170;-71
2021/06/29 14:57:23;;;;;;;188.48;179.88;;;26.20;99.90;;;;;;5134564;27;20169;-71
2021/06/29 14:59:48;;;;;;;614.55;577.40;;;26.50;99.90;;;;;;5134419;27;20170;-71
2021/06/29 15:02:14;;;;;;;590.13;555.08;;;26.70;99.90;;;;;;5134373;27;20165;-71
2021/06/29 15:04:39;;;;;;;567.50;534.28;;;26.70;99.90;;;;;;5134404;27;20512;-71
2021/06/29 15:07:05;;;;;;;375.92;357.00;;;26.90;99.90;;;;;;5134386;27;20166;-70
2021/06/29 15:09:31;;;;;;;379.05;359.85;;;26.70;99.90;;;;;;5134316;27;20175;-70
2021/06/29 15:11:56;;;;;;;377.90;359.38;;;26.40;99.90;;;;;;5134323;27;20189;-71
2021/06/29 15:14:22;;;;;;;436.58;414.02;;;26.10;99.90;;;;;;5134112;28;20220;-71
2021/06/29 15:16:47;;;;;;;514.45;486.02;;;25.70;99.90;;;;;;5134232;28;20177;-71
2021/06/29 15:19:13;;;;;;;495.73;469.45;;;25.50;99.90;;;;;;5134112;28;20652;-71
2021/06/29 15:21:39;;;;;;;473.33;448.55;;;25.20;99.90;;;;;;5134276;28;20244;-68
2021/06/29 15:24:04;;;;;;;570.75;537.83;;;25.00;99.90;;;;;;5134238;28;20197;-71
2021/06/29 15:26:30;;;;;;;672.83;632.38;;;24.80;99.90;;;;;;5134137;27;20185;-71
2021/06/29 15:28:56;;;;;;;794.03;744.47;;;24.70;99.90;;;;;;5134260;28;20683;-69
2021/06/29 15:31:21;;;;;;;810.15;758.60;;;24.90;99.90;;;;;;5134148;28;20170;-69
2021/06/29 15:33:47;;;;;;;694.67;652.45;;;25.00;99.90;;;;;;5115720;28;20204;-70
2021/06/29 15:36:14;;;;;;;620.28;583.80;;;25.20;99.90;;;;;;5136326;27;20185;-70
2021/06/29 15:38:40;;;;;;;725.97;681.35;;;25.20;99.90;;;;;;5138297;27;20169;-69
2021/06/29 15:41:05;;;;;;;797.25;746.70;;;25.30;99.90;;;;;;5119913;27;20170;-69
2021/06/29 15:43:31;;;;;;;709.97;666.22;;;25.40;99.90;;;;;;5138117;27;20646;-69
2021/06/29 15:45:58;;;;;;;705.72;662.58;;;25.50;99.90;;;;;;5138099;27;20184;-68
2021/06/29 15:48:24;;;;;;;697.83;654.92;;;25.50;99.90;;;;;;5138108;27;20235;-69
2021/06/29 15:50:51;;;;;;;594.70;560.10;;;25.40;99.90;;;;;;5138064;27;20623;-70
2021/06/29 15:53:17;;;;;;;524.40;495.38;;;25.40;99.90;;;;;;5138032;27;20194;-71
2021/06/29 15:55:42;;;;;;;747.67;700.88;;;25.30;99.90;;;;;;5137963;27;20646;-71
2021/06/29 15:58:09;;;;;;;736.00;690.55;;;25.20;99.90;;;;;;5137923;27;20176;-71
2021/06/29 16:00:34;;;;;;;657.30;618.10;;;25.00;99.90;;;;;;5137757;27;20169;-71
2021/06/29 16:03:00;;;;;;;654.00;615.30;;;24.90;99.90;;;;;;5137834;27;20165;-71
2021/06/29 16:05:26;;;;;;;706.80;663.92;;;25.00;99.90;;;;;;5137690;27;20197;-69
2021/06/29 16:07:52;;;;;;;487.15;461.63;;;25.00;99.90;;;;;;5137735;27;20173;-69
2021/06/29 16:10:18;;;;;;;458.27;434.98;;;24.90;99.90;;;;;;5137642;27;20170;-68
2021/06/29 16:12:44;;;;;;;579.70;547.22;;;24.80;99.90;;;;;;5137571;27;20184;-69
2021/06/29 16:15:12;;;;;;;664.40;624.78;;;24.90;99.90;;;;;;5137341;27;20546;-68
2021/06/29 16:17:38;;;;;;;660.33;621.08;;;25.10;99.90;;;;;;5137525;27;20173;-69
2021/06/29 16:20:09;;;;;;;562.25;530.28;;;25.40;99.90;;;;;;5137515;27;20521;-69
2021/06/29 16:22:35;;;;;;;557.40;526.35;;;25.70;99.90;;;;;;5137402;27;20235;-69
2021/06/29 16:25:01;;;;;;;548.15;517.67;;;25.80;99.90;;;;;;5137264;27;20592;-69
2021/06/29 16:27:26;;;;;;;568.25;535.88;;;25.80;99.90;;;;;;5137136;27;20182;-69
2021/06/29 16:29:52;;;;;;;505.25;477.75;;;25.60;99.90;;;;;;5118808;27;20174;-68
2021/06/29 16:32:17;;;;;;;655.20;616.08;;;25.60;99.90;;;;;;5137248;27;20162;-70
2021/06/29 16:34:43;;;;;;;622.60;585.67;;;25.70;99.90;;;;;;5137251;27;20619;-68
2021/06/29 16:37:09;;;;;;;751.83;704.85;;;25.60;99.90;;;;;;5137145;27;20182;-68
2021/06/29 16:39:34;;;;;;;647.70;608.65;;;25.80;99.90;;;;;;5137124;27;20170;-68
2021/06/29 16:42:00;;;;;;;623.60;585.50;;;25.90;99.90;;;;;;5136971;27;20197;-69
2021/06/29 16:44:26;;;;;;;712.75;668.65;;;25.80;99.90;;;;;;5118320;27;20198;-69
2021/06/29 16:46:53;;;;;;;643.50;604.97;;;25.90;99.90;;;;;;5136430;27;20302;-69
2021/06/29 16:49:19;;;;;;;577.53;543.78;;;26.00;99.90;;;;;;5136982;27;20162;-69
2021/06/29 16:51:44;;;;;;;710.30;666.33;;;25.90;99.90;;;;;;5136891;27;20177;-67
2021/06/29 16:54:10;;;;;;;606.90;571.13;;;25.80;99.90;;;;;;5136687;27;20162;-67
2021/06/29 16:56:38;;;;;;;592.28;557.58;;;25.70;99.90;;;;;;5136808;27;20166;-67
2021/06/29 16:59:08;;;;;;;684.70;643.10;;;25.60;99.90;;;;;;5136664;27;20197;-67
2021/06/29 17:01:34;;;;;;;682.65;641.22;;;25.30;99.90;;;;;;5136724;27;20517;-67
2021/06/29 17:03:59;;;;;;;656.67;617.10;;;25.30;99.90;;;;;;5136615;27;20189;-67
2021/06/29 17:06:25;;;;;;;664.75;624.40;;;25.30;99.90;;;;;;5136634;27;20500;-67
2021/06/29 17:08:53;;;;;;;690.13;648.10;;;25.10;99.90;;;;;;5136572;27;20220;-67
2021/06/29 17:11:18;;;;;;;642.33;604.20;;;25.00;99.90;;;;;;5136562;27;20158;-67
2021/06/29 17:13:44;;;;;;;717.58;673.65;;;24.80;99.90;;;;;;5136174;27;20692;-67
2021/06/29 17:16:10;;;;;;;759.00;711.38;;;24.30;99.90;;;;;;5136388;27;20176;-68
2021/06/29 17:18:35;;;;;;;889.10;829.92;;;23.60;99.90;;;;;;5136580;27;20554;-67
2021/06/29 17:21:01;;;;;;;989.05;916.75;;;23.10;99.90;;;;;;5136605;27;20553;-67
2021/06/29 17:23:27;;;;;;;915.47;852.65;;;22.60;99.90;;;;;;5136607;27;20170;-66
2021/06/29 17:25:52;;;;;;;1013.03;938.88;;;22.20;99.90;;;;;;5136384;27;20639;-66
2021/06/29 17:28:18;;;;;;;1058.53;978.25;;;21.80;99.90;;;;;;5136293;27;20189;-66
2021/06/29 17:30:44;;;;;;;1079.28;995.72;;;21.50;99.90;;;;;;5136468;27;20166;-66
2021/06/29 17:33:10;;;;;;;1065.72;985.58;;;21.30;99.90;;;;;;5136187;27;20209;-66
2021/06/29 17:35:36;;;;;;;1054.38;977.90;;;21.00;99.90;;;;;;5136296;27;20196;-66
2021/06/29 18:20:12;;;;;;;674.33;633.78;;;19.30;99.90;;;;;;5070922;28;20549;-66
2021/06/29 18:22:38;;;;;;;856.08;801.17;;;18.90;99.90;;;;;;5069724;28;20290;-66
2021/06/29 18:25:06;;;;;;;992.13;923.75;;;18.90;99.90;;;;;;5070930;28;20622;-66
2021/06/29 18:27:33;;;;;;;1038.00;962.97;;;18.80;99.90;;;;;;5070554;28;20183;-66
2021/06/29 18:29:59;;;;;;;1031.00;955.65;;;18.80;99.90;;;;;;5070339;28;20180;-66
